createdAt,value
2018-10-09T00:00:34.542Z,13.04
2018-10-09T00:03:05.508Z,13.06
2018-10-09T00:05:36.228Z,13.02
2018-10-09T00:08:06.747Z,13.00
2018-10-09T00:10:37.791Z,13.02
2018-10-09T00:13:08.605Z,13.03
2018-10-09T00:15:39.373Z,13.04
2018-10-09T00:18:10.470Z,13.03
2018-10-09T00:20:41.334Z,13.00
2018-10-09T00:23:12.086Z,12.91
2018-10-09T00:25:42.807Z,12.82
2018-10-09T00:28:13.651Z,12.79
2018-10-09T00:30:44.235Z,12.75
2018-10-09T00:33:14.921Z,12.76
2018-10-09T00:35:45.615Z,12.77
2018-10-09T00:38:16.491Z,12.76
2018-10-09T00:40:47.196Z,12.79
2018-10-09T00:43:17.851Z,12.80
2018-10-09T00:45:48.511Z,12.75
2018-10-09T00:48:19.003Z,12.77
2018-10-09T00:50:49.831Z,12.68
2018-10-09T00:53:20.555Z,12.56
2018-10-09T00:55:51.271Z,12.48
2018-10-09T00:58:21.927Z,12.40
2018-10-09T01:00:52.707Z,12.41
2018-10-09T01:03:23.834Z,12.42
2018-10-09T01:05:54.855Z,12.39
2018-10-09T01:08:25.431Z,12.36
2018-10-09T01:10:56.202Z,12.33
2018-10-09T01:13:27.143Z,12.34
2018-10-09T01:15:57.979Z,12.37
2018-10-09T01:18:28.821Z,12.36
2018-10-09T01:20:59.642Z,12.36
2018-10-09T01:23:30.858Z,12.38
2018-10-09T01:26:01.476Z,12.37
2018-10-09T01:28:32.371Z,12.40
2018-10-09T01:31:03.199Z,12.41
2018-10-09T01:33:34.151Z,12.40
2018-10-09T01:36:04.874Z,12.32
2018-10-09T01:38:35.714Z,12.34
2018-10-09T01:41:06.987Z,12.32
2018-10-09T01:43:37.917Z,12.33
2018-10-09T01:46:08.770Z,12.32
2018-10-09T01:48:40.028Z,12.30
2018-10-09T01:51:11.082Z,12.27
2018-10-09T01:53:42.623Z,12.27
2018-10-09T01:56:13.635Z,12.25
2018-10-09T01:58:45.210Z,12.24
2018-10-09T02:01:16.271Z,12.23
2018-10-09T02:06:27.920Z,12.16
2018-10-09T02:08:58.743Z,12.12
2018-10-09T02:11:29.377Z,12.16
2018-10-09T02:13:59.931Z,12.14
2018-10-09T02:16:30.547Z,12.11
2018-10-09T02:19:01.200Z,12.03
2018-10-09T02:21:31.894Z,12.04
2018-10-09T02:24:02.802Z,12.01
2018-10-09T02:26:33.595Z,11.97
2018-10-09T02:29:04.621Z,11.96
2018-10-09T02:31:35.413Z,11.94
2018-10-09T02:34:06.367Z,11.89
2018-10-09T02:36:38.007Z,11.88
2018-10-09T02:39:11.603Z,11.88
2018-10-09T02:41:42.339Z,11.92
2018-10-09T02:44:13.418Z,11.92
2018-10-09T02:46:44.666Z,11.92
2018-10-09T02:49:15.608Z,11.91
2018-10-09T02:51:47.046Z,11.89
2018-10-09T02:54:19.013Z,11.88
2018-10-09T02:56:50.527Z,11.88
2018-10-09T02:59:21.347Z,11.88
2018-10-09T03:01:52.508Z,11.89
2018-10-09T03:04:25.195Z,11.86
2018-10-09T03:06:56.263Z,11.82
2018-10-09T03:09:27.287Z,11.83
2018-10-09T03:11:57.607Z,11.87
2018-10-09T03:14:28.246Z,11.83
2018-10-09T03:16:58.880Z,11.80
2018-10-09T03:19:29.533Z,11.77
2018-10-09T03:22:01.208Z,11.87
2018-10-09T03:24:31.891Z,11.84
2018-10-09T03:27:02.857Z,11.84
2018-10-09T03:29:33.463Z,11.82
2018-10-09T03:32:04.227Z,11.82
2018-10-09T03:34:35.357Z,11.74
2018-10-09T03:37:06.710Z,11.67
2018-10-09T03:39:37.488Z,11.65
2018-10-09T03:42:08.283Z,11.62
2018-10-09T03:44:38.779Z,11.64
2018-10-09T03:47:09.651Z,11.66
2018-10-09T03:49:40.780Z,11.65
2018-10-09T03:52:11.579Z,11.65
2018-10-09T03:54:42.720Z,11.64
2018-10-09T03:57:13.646Z,11.63
2018-10-09T03:59:44.605Z,11.62
2018-10-09T04:02:15.669Z,11.60
2018-10-09T04:04:46.395Z,11.57
2018-10-09T04:07:17.279Z,11.53
2018-10-09T04:09:47.993Z,11.49
2018-10-09T04:12:20.100Z,11.49
2018-10-09T04:14:51.491Z,11.50
2018-10-09T04:17:22.124Z,11.54
2018-10-09T04:19:52.851Z,11.54
2018-10-09T04:22:23.996Z,11.58
2018-10-09T04:24:54.910Z,11.62
2018-10-09T04:27:26.303Z,11.60
2018-10-09T04:29:56.878Z,11.58
2018-10-09T04:32:28.364Z,11.58
2018-10-09T04:34:59.388Z,11.59
2018-10-09T04:37:30.231Z,11.63
2018-10-09T04:40:00.988Z,11.67
2018-10-09T04:42:31.966Z,11.64
2018-10-09T04:45:03.864Z,11.65
2018-10-09T04:47:34.887Z,11.72
2018-10-09T04:50:07.395Z,11.74
2018-10-09T04:52:38.198Z,11.76
2018-10-09T04:55:09.344Z,11.72
2018-10-09T04:57:40.390Z,11.66
2018-10-09T05:00:11.237Z,11.59
2018-10-09T05:02:42.867Z,11.59
2018-10-09T05:05:13.623Z,11.55
2018-10-09T05:07:44.239Z,11.50
2018-10-09T05:10:15.599Z,11.52
2018-10-09T05:12:46.552Z,11.53
2018-10-09T05:15:17.375Z,11.52
2018-10-09T05:17:49.634Z,11.52
2018-10-09T05:20:20.587Z,11.53
2018-10-09T05:22:50.994Z,11.57
2018-10-09T05:25:21.791Z,11.60
2018-10-09T05:27:52.442Z,11.62
2018-10-09T05:30:23.056Z,11.61
2018-10-09T05:32:53.646Z,11.61
2018-10-09T05:35:24.575Z,11.60
2018-10-09T05:37:55.262Z,11.63
2018-10-09T05:40:26.239Z,11.63
2018-10-09T05:42:56.803Z,11.66
2018-10-09T05:45:27.512Z,11.69
2018-10-09T05:47:58.132Z,11.67
2018-10-09T05:50:28.960Z,11.68
2018-10-09T05:52:59.535Z,11.69
2018-10-09T05:55:30.308Z,11.72
2018-10-09T05:58:01.119Z,11.74
2018-10-09T06:00:32.170Z,11.75
2018-10-09T06:03:02.496Z,11.78
2018-10-09T06:05:33.058Z,11.80
2018-10-09T06:08:03.432Z,11.85
2018-10-09T06:10:34.201Z,11.91
2018-10-09T06:13:06.108Z,11.98
2018-10-09T06:15:37.175Z,12.00
2018-10-09T06:18:07.968Z,12.02
2018-10-09T06:20:38.880Z,12.03
2018-10-09T06:23:13.136Z,12.16
2018-10-09T06:25:44.623Z,12.27
2018-10-09T06:28:16.318Z,12.38
2018-10-09T06:30:47.980Z,12.48
2018-10-09T06:33:18.811Z,12.52
2018-10-09T06:35:50.353Z,12.53
2018-10-09T06:38:21.082Z,12.53
2018-10-09T06:40:51.747Z,12.58
2018-10-09T06:43:23.975Z,12.61
2018-10-09T06:45:54.579Z,12.67
2018-10-09T06:48:25.280Z,12.78
2018-10-09T06:50:56.376Z,12.90
2018-10-09T06:53:27.272Z,13.00
2018-10-09T06:55:58.031Z,13.08
2018-10-09T06:58:28.622Z,13.10
2018-10-09T07:00:59.232Z,13.04
2018-10-09T07:03:29.820Z,13.07
2018-10-09T07:06:00.775Z,13.09
2018-10-09T07:08:31.421Z,13.08
2018-10-09T07:11:02.072Z,13.07
2018-10-09T07:13:32.790Z,13.10
2018-10-09T07:16:03.756Z,13.10
2018-10-09T07:18:34.320Z,13.05
2018-10-09T07:21:04.996Z,13.06
2018-10-09T07:23:35.604Z,13.09
2018-10-09T07:26:06.495Z,13.11
2018-10-09T07:28:37.283Z,13.14
2018-10-09T07:31:07.927Z,13.18
2018-10-09T07:33:38.752Z,13.20
2018-10-09T07:36:09.388Z,13.26
2018-10-09T07:38:40.200Z,13.33
2018-10-09T07:41:11.218Z,13.50
2018-10-09T07:43:42.001Z,13.69
2018-10-09T07:46:12.778Z,13.86
2018-10-09T07:48:43.473Z,13.99
2018-10-09T07:51:14.204Z,14.12
2018-10-09T07:53:45.135Z,14.30
2018-10-09T07:56:15.784Z,14.56
2018-10-09T07:58:46.776Z,14.81
2018-10-09T08:01:20.031Z,15.04
2018-10-09T08:03:50.823Z,15.25
2018-10-09T08:06:21.551Z,15.49
2018-10-09T08:08:52.283Z,15.69
2018-10-09T08:11:22.934Z,15.92
2018-10-09T08:13:53.651Z,16.13
2018-10-09T08:16:24.568Z,16.34
2018-10-09T08:18:55.514Z,16.52
2018-10-09T08:21:26.479Z,16.76
2018-10-09T08:23:57.139Z,16.93
2018-10-09T08:26:28.167Z,17.07
2018-10-09T08:28:59.278Z,17.27
2018-10-09T08:31:30.084Z,17.43
2018-10-09T08:34:00.998Z,17.50
2018-10-09T08:36:32.574Z,17.54
2018-10-09T08:39:04.064Z,17.64
2018-10-09T08:41:36.446Z,17.84
2018-10-09T08:44:08.088Z,18.03
2018-10-09T08:46:38.802Z,18.15
2018-10-09T08:49:10.225Z,18.26
2018-10-09T08:51:41.112Z,18.29
2018-10-09T08:54:12.098Z,18.44
2018-10-09T08:56:42.871Z,18.66
2018-10-09T08:59:13.190Z,18.78
2018-10-09T09:01:43.766Z,18.88
2018-10-09T09:04:14.479Z,19.00
2018-10-09T09:06:46.235Z,19.12
2018-10-09T09:09:16.852Z,19.25
2018-10-09T09:11:47.671Z,19.46
2018-10-09T09:14:18.656Z,19.63
2018-10-09T09:16:49.346Z,19.80
2018-10-09T09:19:19.987Z,19.96
2018-10-09T09:21:50.819Z,20.17
2018-10-09T09:24:21.687Z,20.30
2018-10-09T09:26:52.249Z,20.49
2018-10-09T09:29:23.340Z,20.65
2018-10-09T09:31:54.459Z,20.83
2018-10-09T09:34:26.830Z,20.97
2018-10-09T09:36:57.422Z,21.12
2018-10-09T09:39:28.217Z,20.99
2018-10-09T09:41:59.058Z,21.14
2018-10-09T09:44:29.900Z,21.26
2018-10-09T09:47:00.528Z,21.26
2018-10-09T09:49:31.007Z,21.33
2018-10-09T09:52:01.611Z,21.44
2018-10-09T09:54:32.374Z,21.58
2018-10-09T09:57:03.236Z,21.78
2018-10-09T09:59:33.873Z,21.91
2018-10-09T10:02:04.858Z,22.04
2018-10-09T10:04:35.615Z,22.16
2018-10-09T10:07:06.832Z,22.28
2018-10-09T10:09:37.739Z,22.21
2018-10-09T10:12:08.648Z,22.03
2018-10-09T10:14:39.603Z,22.17
2018-10-09T10:17:10.204Z,22.38
2018-10-09T10:19:40.922Z,22.41
2018-10-09T10:22:11.492Z,22.48
2018-10-09T10:24:42.452Z,22.61
2018-10-09T10:27:13.188Z,22.79
2018-10-09T10:29:43.879Z,22.82
2018-10-09T10:32:14.604Z,22.87
2018-10-09T10:34:44.951Z,22.93
2018-10-09T10:37:15.541Z,23.01
2018-10-09T10:39:46.437Z,23.13
2018-10-09T10:42:17.227Z,23.21
2018-10-09T10:44:48.105Z,23.30
2018-10-09T10:47:19.254Z,23.38
2018-10-09T10:49:50.280Z,23.41
2018-10-09T10:52:22.758Z,23.36
2018-10-09T10:54:56.950Z,23.31
2018-10-09T10:57:29.340Z,23.23
2018-10-09T11:00:07.659Z,23.28
2018-10-09T11:02:40.944Z,23.32
2018-10-09T11:05:11.627Z,23.29
2018-10-09T11:07:42.334Z,23.29
2018-10-09T11:10:13.356Z,23.33
2018-10-09T11:12:45.883Z,23.30
2018-10-09T11:15:16.960Z,23.13
2018-10-09T11:17:47.752Z,23.02
2018-10-09T11:20:23.406Z,23.12
2018-10-09T11:22:54.482Z,23.19
2018-10-09T11:25:29.229Z,23.26
2018-10-09T11:28:02.096Z,23.27
2018-10-09T11:30:35.668Z,23.31
2018-10-09T11:33:08.096Z,23.41
2018-10-09T11:35:40.580Z,23.35
2018-10-09T11:38:14.545Z,23.28
2018-10-09T11:40:45.408Z,23.23
2018-10-09T11:43:16.023Z,23.31
2018-10-09T11:45:46.956Z,23.19
2018-10-09T11:48:20.984Z,23.09
2018-10-09T11:50:51.700Z,23.03
2018-10-09T11:53:22.470Z,23.10
2018-10-09T11:55:53.074Z,23.22
2018-10-09T11:58:24.113Z,23.15
2018-10-09T12:00:57.188Z,23.19
2018-10-09T12:03:27.855Z,23.15
2018-10-09T12:05:58.945Z,23.06
2018-10-09T12:08:29.512Z,23.08
2018-10-09T12:11:00.939Z,23.12
2018-10-09T12:13:31.540Z,23.11
2018-10-09T12:16:02.423Z,23.09
2018-10-09T12:18:33.355Z,23.00
2018-10-09T12:21:03.995Z,22.99
2018-10-09T12:23:34.944Z,23.03
2018-10-09T12:26:06.727Z,22.99
2018-10-09T12:28:37.540Z,22.95
2018-10-09T12:31:08.817Z,22.98
2018-10-09T12:33:44.504Z,23.09
2018-10-09T12:36:17.153Z,23.03
2018-10-09T12:38:49.778Z,23.04
2018-10-09T12:41:20.685Z,23.04
2018-10-09T12:43:51.523Z,22.99
2018-10-09T12:46:22.385Z,23.04
2018-10-09T12:48:56.481Z,23.09
2018-10-09T12:51:27.067Z,23.12
2018-10-09T12:53:58.656Z,23.18
2018-10-09T12:56:29.448Z,23.24
2018-10-09T12:59:01.135Z,23.24
2018-10-09T13:01:31.984Z,23.25
2018-10-09T13:04:02.819Z,23.29
2018-10-09T13:06:33.703Z,23.19
2018-10-09T13:09:05.533Z,23.20
2018-10-09T13:11:36.361Z,23.23
2018-10-09T13:14:07.523Z,23.11
2018-10-09T13:16:38.091Z,23.07
2018-10-09T13:19:09.196Z,23.00
2018-10-09T13:21:40.698Z,22.91
2018-10-09T13:24:11.415Z,22.96
2018-10-09T13:26:42.018Z,23.00
2018-10-09T13:29:12.818Z,23.07
2018-10-09T13:31:43.728Z,23.11
2018-10-09T13:34:14.529Z,23.13
2018-10-09T13:36:45.836Z,23.10
2018-10-09T13:39:17.048Z,23.18
2018-10-09T13:41:56.008Z,23.18
2018-10-09T13:44:26.852Z,23.35
2018-10-09T13:46:57.778Z,23.46
2018-10-09T13:49:32.303Z,23.50
2018-10-09T13:52:03.269Z,23.35
2018-10-09T13:54:35.980Z,23.36
2018-10-09T13:57:07.038Z,23.34
2018-10-09T13:59:37.812Z,23.37
2018-10-09T14:02:09.363Z,23.32
2018-10-09T14:04:40.193Z,23.30
2018-10-09T14:07:11.006Z,23.26
2018-10-09T14:09:41.785Z,23.25
2018-10-09T14:12:15.611Z,23.21
2018-10-09T14:14:46.301Z,23.24
2018-10-09T14:17:17.116Z,23.24
2018-10-09T14:19:47.928Z,23.16
2018-10-09T14:22:18.891Z,23.16
2018-10-09T14:24:49.868Z,22.99
2018-10-09T14:27:20.677Z,22.91
2018-10-09T14:29:51.510Z,22.77
2018-10-09T14:32:22.278Z,22.68
2018-10-09T14:34:53.228Z,22.57
2018-10-09T14:37:24.275Z,22.48
2018-10-09T14:39:55.164Z,22.39
2018-10-09T14:42:25.815Z,22.34
2018-10-09T14:44:56.616Z,22.31
2018-10-09T14:47:27.367Z,22.26
2018-10-09T14:50:00.618Z,22.24
2018-10-09T14:52:40.596Z,22.20
2018-10-09T14:55:16.425Z,22.15
2018-10-09T14:57:47.685Z,22.08
2018-10-09T15:00:18.535Z,22.04
2018-10-09T15:02:49.580Z,22.00
2018-10-09T15:05:22.724Z,22.01
2018-10-09T15:07:53.424Z,21.99
2018-10-09T15:10:24.023Z,21.95
2018-10-09T15:12:54.966Z,21.97
2018-10-09T15:15:29.645Z,21.94
2018-10-09T15:18:00.402Z,21.91
2018-10-09T15:20:31.688Z,21.92
2018-10-09T15:23:02.302Z,21.91
2018-10-09T15:25:32.959Z,21.89
2018-10-09T15:28:09.796Z,21.92
2018-10-09T15:30:45.780Z,21.97
2018-10-09T15:33:17.912Z,22.02
2018-10-09T15:35:49.092Z,22.06
2018-10-09T15:38:19.803Z,22.07
2018-10-09T15:40:51.149Z,22.09
2018-10-09T15:43:26.140Z,22.04
2018-10-09T15:45:58.228Z,22.02
2018-10-09T15:48:29.154Z,21.95
2018-10-09T15:51:00.621Z,21.95
2018-10-09T15:53:31.384Z,21.92
2018-10-09T15:56:02.240Z,21.84
2018-10-09T15:58:32.835Z,21.77
2018-10-09T16:01:04.009Z,21.69
2018-10-09T16:03:34.856Z,21.65
2018-10-09T16:06:05.504Z,21.58
2018-10-09T16:08:38.777Z,21.54
2018-10-09T16:11:09.754Z,21.42
2018-10-09T16:13:40.442Z,21.37
2018-10-09T16:16:11.112Z,21.30
2018-10-09T16:18:41.683Z,21.23
2018-10-09T16:21:12.371Z,21.18
2018-10-09T16:23:43.083Z,21.12
2018-10-09T16:26:14.475Z,21.01
2018-10-09T16:28:45.506Z,20.94
2018-10-09T16:31:17.955Z,20.83
2018-10-09T16:33:49.230Z,20.75
2018-10-09T16:36:24.281Z,20.66
2018-10-09T16:38:57.205Z,20.62
2018-10-09T16:41:28.235Z,20.53
2018-10-09T16:43:58.605Z,20.44
2018-10-09T16:46:29.224Z,20.35
2018-10-09T16:48:59.787Z,20.30
2018-10-09T16:51:30.859Z,20.18
2018-10-09T16:54:01.437Z,20.07
2018-10-09T16:56:32.063Z,19.98
2018-10-09T16:59:02.736Z,19.90
2018-10-09T17:01:33.318Z,19.86
2018-10-09T17:04:05.428Z,19.78
2018-10-09T17:06:36.261Z,19.72
2018-10-09T17:09:13.341Z,19.65
2018-10-09T17:11:43.932Z,19.55
2018-10-09T17:14:14.959Z,19.47
2018-10-09T17:16:45.576Z,19.42
2018-10-09T17:19:16.780Z,19.37
2018-10-09T17:21:47.624Z,19.34
2018-10-09T17:24:18.348Z,19.30
2018-10-09T17:26:49.614Z,19.23
2018-10-09T17:29:20.752Z,19.15
2018-10-09T17:31:51.901Z,19.09
2018-10-09T17:34:23.245Z,18.99
2018-10-09T17:36:53.876Z,18.91
2018-10-09T17:39:24.682Z,18.86
2018-10-09T17:41:55.599Z,18.80
2018-10-09T17:44:26.567Z,18.70
2018-10-09T17:46:57.340Z,18.63
2018-10-09T17:49:28.550Z,18.63
2018-10-09T17:51:59.296Z,18.55
2018-10-09T17:57:10.438Z,18.44
2018-10-09T17:59:45.833Z,18.39
2018-10-09T18:02:16.833Z,18.37
2018-10-09T18:04:47.715Z,18.32
2018-10-09T18:07:18.737Z,18.26
2018-10-09T18:09:49.520Z,18.17
2018-10-09T18:12:20.171Z,18.14
2018-10-09T18:14:51.164Z,18.11
2018-10-09T18:17:21.968Z,18.05
2018-10-09T18:19:58.021Z,18.02
2018-10-09T18:22:28.780Z,17.99
2018-10-09T18:25:00.544Z,17.96
2018-10-09T18:27:31.272Z,17.95
2018-10-09T18:30:02.015Z,17.92
2018-10-09T18:32:34.492Z,17.90
2018-10-09T18:35:14.183Z,17.88
2018-10-09T18:37:45.596Z,17.87
2018-10-09T18:40:19.496Z,17.80
2018-10-09T18:42:50.744Z,17.79
2018-10-09T18:45:21.612Z,17.70
2018-10-09T18:47:57.639Z,17.62
2018-10-09T18:50:28.890Z,17.54
2018-10-09T18:53:02.231Z,17.49
2018-10-09T18:55:33.304Z,17.43
2018-10-09T18:58:04.027Z,17.39
2018-10-09T19:00:34.640Z,17.36
2018-10-09T19:03:05.360Z,17.32
2018-10-09T19:05:36.127Z,17.28
2018-10-09T19:08:10.299Z,17.25
2018-10-09T19:10:41.064Z,17.19
2018-10-09T19:13:12.226Z,17.08
2018-10-09T19:15:43.212Z,16.99
2018-10-09T19:18:17.231Z,16.92
2018-10-09T19:20:55.882Z,16.86
2018-10-09T19:23:29.159Z,16.82
2018-10-09T19:26:00.418Z,16.76
2018-10-09T19:28:31.119Z,16.69
2018-10-09T19:31:01.786Z,16.66
2018-10-09T19:33:32.599Z,16.63
2018-10-09T19:36:03.529Z,16.62
2018-10-09T19:38:34.516Z,16.58
2018-10-09T19:41:05.517Z,16.55
2018-10-09T19:43:38.011Z,16.47
2018-10-09T19:46:08.761Z,16.38
2018-10-09T19:48:39.511Z,16.28
2018-10-09T19:51:10.594Z,16.22
2018-10-09T19:53:41.265Z,16.18
2018-10-09T19:56:12.066Z,16.05
2018-10-09T19:58:42.928Z,15.95
2018-10-09T20:01:13.951Z,15.86
2018-10-09T20:03:45.176Z,15.79
2018-10-09T20:06:15.909Z,15.73
2018-10-09T20:08:46.663Z,15.68
2018-10-09T20:11:17.082Z,15.59
2018-10-09T20:13:47.815Z,15.55
2018-10-09T20:16:18.665Z,15.53
2018-10-09T20:18:49.374Z,15.46
2018-10-09T20:21:20.045Z,15.42
2018-10-09T20:23:50.692Z,15.40
2018-10-09T20:26:21.497Z,15.37
2018-10-09T20:28:52.270Z,15.36
2018-10-09T20:31:22.861Z,15.34
2018-10-09T20:33:53.597Z,15.30
2018-10-09T20:36:24.184Z,15.28
2018-10-09T20:38:55.341Z,15.26
2018-10-09T20:41:27.235Z,15.25
2018-10-09T20:43:59.657Z,15.22
2018-10-09T20:46:30.865Z,15.19
2018-10-09T20:49:02.281Z,15.14
2018-10-09T20:51:34.272Z,15.11
2018-10-09T20:54:08.665Z,15.09
2018-10-09T20:56:39.293Z,15.07
2018-10-09T20:59:10.642Z,15.01
2018-10-09T21:01:44.987Z,14.95
2018-10-09T21:04:15.899Z,14.94
2018-10-09T21:06:46.645Z,14.88
2018-10-09T21:09:17.888Z,14.84
2018-10-09T21:11:48.909Z,14.81
2018-10-09T21:14:20.069Z,14.79
2018-10-09T21:16:50.891Z,14.75
2018-10-09T21:19:21.615Z,14.70
2018-10-09T21:21:52.233Z,14.64
2018-10-09T21:24:23.007Z,14.60
2018-10-09T21:26:53.843Z,14.57
2018-10-09T21:29:24.542Z,14.52
2018-10-09T21:31:56.223Z,14.52
2018-10-09T21:34:26.817Z,14.47
2018-10-09T21:37:02.267Z,14.43
2018-10-09T21:39:33.400Z,14.41
2018-10-09T21:42:14.056Z,14.33
2018-10-09T21:44:47.565Z,14.29
2018-10-09T21:47:19.148Z,14.25
2018-10-09T21:49:50.206Z,14.22
2018-10-09T21:52:22.403Z,14.20
2018-10-09T21:54:53.092Z,14.20
2018-10-09T21:57:26.296Z,14.17
2018-10-09T21:59:57.319Z,14.13
2018-10-09T22:02:27.945Z,14.09
2018-10-09T22:04:58.692Z,14.06
2018-10-09T22:07:29.315Z,14.02
2018-10-09T22:10:00.148Z,14.01
2018-10-09T22:12:30.775Z,14.01
2018-10-09T22:15:01.400Z,14.01
2018-10-09T22:17:32.039Z,14.00
2018-10-09T22:20:02.673Z,13.97
2018-10-09T22:22:33.300Z,13.95
2018-10-09T22:25:03.892Z,13.97
2018-10-09T22:27:34.652Z,13.97
2018-10-09T22:30:06.044Z,13.94
2018-10-09T22:32:36.786Z,13.94
2018-10-09T22:35:07.571Z,13.90
2018-10-09T22:37:38.169Z,13.88
2018-10-09T22:40:08.824Z,13.89
2018-10-09T22:42:39.588Z,13.87
2018-10-09T22:45:10.309Z,13.84
2018-10-09T22:47:41.748Z,13.82
2018-10-09T22:50:12.512Z,13.82
2018-10-09T22:52:43.120Z,13.83
2018-10-09T22:55:13.784Z,13.81
2018-10-09T22:57:44.456Z,13.78
2018-10-09T23:00:15.354Z,13.76
2018-10-09T23:02:45.961Z,13.75
2018-10-09T23:05:16.843Z,13.71
2018-10-09T23:07:47.538Z,13.71
2018-10-09T23:10:17.960Z,13.70
2018-10-09T23:12:48.596Z,13.62
2018-10-09T23:15:19.520Z,13.58
2018-10-09T23:17:50.295Z,13.57
2018-10-09T23:20:21.004Z,13.54
2018-10-09T23:22:51.811Z,13.50
2018-10-09T23:25:24.007Z,13.46
2018-10-09T23:27:54.840Z,13.46
2018-10-09T23:30:25.533Z,13.45
2018-10-09T23:32:57.520Z,13.45
2018-10-09T23:35:29.974Z,13.44
2018-10-09T23:38:01.324Z,13.43
2018-10-09T23:40:32.361Z,13.40
2018-10-09T23:43:04.809Z,13.38
2018-10-09T23:45:35.771Z,13.41
2018-10-09T23:48:08.151Z,13.40
2018-10-09T23:50:41.663Z,13.41
2018-10-09T23:53:12.472Z,13.38
2018-10-09T23:55:43.223Z,13.38
2018-10-09T23:58:14.151Z,13.35
